Time;durP1;ratioP1;P1;durP2;ratioP2;P2;SDS_P1;SDS_P2;PMS_P1;PMS_P2;Temp;Humidity;BMP_temperature;BMP_pressure;BME280_temperature;BME280_humidity;BME280_pressure;Samples;Min_cycle;Max_cycle;Signal;HPM_P1;HPM_P2
2022/03/09 00:00:43;;;;;;;8.82;4.38;;;4.00;64.30;;;;;;5035253;28;20045;-84
2022/03/09 00:03:09;;;;;;;10.00;4.05;;;3.90;64.50;;;;;;5035749;28;20052;-84
2022/03/09 00:05:34;;;;;;;9.35;4.03;;;3.90;64.60;;;;;;5019291;28;20073;-84
2022/03/09 00:08:00;;;;;;;12.73;5.07;;;3.90;65.00;;;;;;5007564;28;20049;-84
2022/03/09 00:10:25;;;;;;;7.85;4.00;;;3.80;65.10;;;;;;5012812;28;20077;-84
2022/03/09 00:12:52;;;;;;;9.60;4.50;;;3.80;65.10;;;;;;5029747;28;20124;-84
2022/03/09 00:15:17;;;;;;;14.77;4.82;;;3.80;65.00;;;;;;5023872;28;20042;-84
2022/03/09 00:17:43;;;;;;;8.73;4.82;;;3.70;65.70;;;;;;5027671;28;20047;-84
2022/03/09 00:20:09;;;;;;;8.00;4.38;;;3.70;65.60;;;;;;5025387;28;20041;-84
2022/03/09 00:22:35;;;;;;;7.95;4.55;;;3.70;65.70;;;;;;5026805;28;20383;-85
2022/03/09 00:25:00;;;;;;;8.23;4.00;;;3.60;65.80;;;;;;5033244;28;20091;-84
2022/03/09 00:27:26;;;;;;;9.73;5.05;;;3.60;66.00;;;;;;5030118;28;20084;-86
2022/03/09 00:29:51;;;;;;;9.32;4.65;;;3.60;66.40;;;;;;5009882;28;20069;-84
2022/03/09 00:32:17;;;;;;;9.88;4.63;;;3.60;66.40;;;;;;5011647;28;20029;-84
2022/03/09 00:34:43;;;;;;;8.50;4.70;;;3.50;65.90;;;;;;5023031;28;20050;-85
2022/03/09 00:37:08;;;;;;;9.50;4.65;;;3.50;66.50;;;;;;5017974;28;20033;-84
2022/03/09 00:39:34;;;;;;;7.20;4.20;;;3.50;67.00;;;;;;5028970;28;20130;-84
2022/03/09 00:41:59;;;;;;;8.02;4.38;;;3.40;66.80;;;;;;5026695;28;20072;-85
2022/03/09 00:44:25;;;;;;;11.35;4.75;;;3.40;67.10;;;;;;5002510;28;20091;-84
2022/03/09 00:46:51;;;;;;;10.38;4.70;;;3.40;67.20;;;;;;5009981;28;20041;-84
2022/03/09 00:49:16;;;;;;;11.93;4.90;;;3.40;67.00;;;;;;5026024;28;20044;-85
2022/03/09 00:51:42;;;;;;;8.75;4.63;;;3.30;67.40;;;;;;5026705;28;20033;-84
2022/03/09 00:54:08;;;;;;;9.63;5.20;;;3.30;67.50;;;;;;5025596;28;20033;-85
2022/03/09 00:56:34;;;;;;;10.93;4.60;;;3.30;67.60;;;;;;5006390;28;20044;-84
2022/03/09 00:58:59;;;;;;;8.05;4.03;;;3.30;67.10;;;;;;5027538;28;20496;-84
2022/03/09 01:01:25;;;;;;;11.60;5.90;;;3.30;67.40;;;;;;5010529;28;20049;-84
2022/03/09 01:03:50;;;;;;;9.25;4.68;;;3.30;67.40;;;;;;5027211;28;20125;-84
2022/03/09 01:06:16;;;;;;;9.18;4.50;;;3.20;67.50;;;;;;5014342;28;20049;-84
2022/03/09 01:08:42;;;;;;;8.35;4.60;;;3.30;66.80;;;;;;5010593;28;20032;-84
2022/03/09 01:11:08;;;;;;;9.10;4.82;;;3.30;66.80;;;;;;5029605;28;20045;-84
2022/03/09 01:13:34;;;;;;;10.50;5.00;;;3.30;66.60;;;;;;5011398;28;20037;-84
2022/03/09 01:15:59;;;;;;;11.05;4.85;;;3.30;66.60;;;;;;5025996;28;20040;-84
2022/03/09 01:18:25;;;;;;;10.40;5.38;;;3.40;66.50;;;;;;5030616;28;20059;-84
2022/03/09 01:20:50;;;;;;;8.75;4.38;;;3.40;66.10;;;;;;5030146;28;20124;-84
2022/03/09 01:23:16;;;;;;;11.35;4.72;;;3.30;66.10;;;;;;5029791;28;20044;-85
2022/03/09 01:25:42;;;;;;;10.77;5.13;;;3.30;65.90;;;;;;5029282;28;20083;-84
2022/03/09 01:28:07;;;;;;;8.38;4.72;;;3.40;66.10;;;;;;5006715;28;20037;-84
2022/03/09 01:30:33;;;;;;;9.30;4.95;;;3.40;65.70;;;;;;5028586;28;20114;-85
2022/03/09 01:32:58;;;;;;;11.95;4.82;;;3.40;65.50;;;;;;5024944;28;20083;-84
2022/03/09 01:35:24;;;;;;;10.88;4.72;;;3.40;65.10;;;;;;5014166;28;20036;-84
2022/03/09 01:37:50;;;;;;;11.73;4.82;;;3.40;65.10;;;;;;5028764;28;20041;-85
2022/03/09 01:40:16;;;;;;;9.05;4.95;;;3.40;65.00;;;;;;5030379;28;20040;-85
2022/03/09 01:42:42;;;;;;;8.90;4.80;;;3.40;65.20;;;;;;5028930;28;20083;-84
2022/03/09 01:45:10;;;;;;;9.85;4.68;;;3.40;65.30;;;;;;5018056;28;20064;-84
2022/03/09 01:47:36;;;;;;;10.48;4.95;;;3.40;65.30;;;;;;5029454;28;20037;-84
2022/03/09 01:50:03;;;;;;;9.18;5.32;;;3.40;65.10;;;;;;5031360;28;20411;-84
2022/03/09 01:52:29;;;;;;;9.60;4.95;;;3.30;65.30;;;;;;5029681;28;20045;-84
2022/03/09 01:54:56;;;;;;;8.45;4.80;;;3.40;64.70;;;;;;5014194;28;20078;-84
2022/03/09 01:57:22;;;;;;;10.93;4.95;;;3.40;64.80;;;;;;5014083;28;20041;-84
2022/03/09 01:59:52;;;;;;;10.50;4.68;;;3.40;64.70;;;;;;5030175;28;20041;-84
2022/03/09 02:02:18;;;;;;;10.57;4.80;;;3.40;64.50;;;;;;5030271;28;20420;-83
2022/03/09 02:04:45;;;;;;;9.45;5.32;;;3.30;64.30;;;;;;5031993;28;20079;-83
2022/03/09 02:07:11;;;;;;;9.55;4.90;;;3.30;64.40;;;;;;5031591;28;20105;-83
2022/03/09 02:09:47;;;;;;;10.02;5.15;;;3.30;64.20;;;;;;5026334;28;20128;-83
2022/03/09 02:12:16;;;;;;;9.07;4.85;;;3.30;64.40;;;;;;5027605;28;20044;-83
2022/03/09 02:14:50;;;;;;;9.77;4.93;;;3.20;64.40;;;;;;5026754;28;20045;-84
2022/03/09 02:17:25;;;;;;;11.15;4.30;;;3.20;64.80;;;;;;5023748;28;20191;-83
2022/03/09 02:19:51;;;;;;;10.50;4.72;;;3.10;65.30;;;;;;5012292;28;20036;-83
2022/03/09 02:22:20;;;;;;;8.30;5.07;;;3.10;65.60;;;;;;5016782;28;20405;-83
2022/03/09 02:24:51;;;;;;;9.70;5.22;;;3.00;65.80;;;;;;5013786;28;20056;-83
2022/03/09 02:27:20;;;;;;;10.02;4.72;;;2.90;66.00;;;;;;5028933;28;20189;-83
2022/03/09 02:29:47;;;;;;;10.85;4.68;;;2.90;66.00;;;;;;5011622;28;20041;-83
2022/03/09 02:32:12;;;;;;;8.75;4.43;;;2.90;66.50;;;;;;5007822;28;20086;-83
2022/03/09 02:34:38;;;;;;;9.02;4.70;;;2.80;66.50;;;;;;5029049;28;20047;-83
2022/03/09 02:37:04;;;;;;;9.15;4.90;;;2.80;66.60;;;;;;5025782;28;20320;-83
2022/03/09 02:39:30;;;;;;;11.35;5.10;;;2.80;66.90;;;;;;5027135;28;20041;-83
2022/03/09 02:41:56;;;;;;;9.25;4.70;;;2.70;66.70;;;;;;5007401;28;20040;-83
2022/03/09 02:44:21;;;;;;;9.43;5.00;;;2.70;68.10;;;;;;5029673;28;20814;-83
2022/03/09 02:46:47;;;;;;;10.98;5.32;;;2.60;67.50;;;;;;5030342;28;20597;-83
2022/03/09 02:49:13;;;;;;;8.52;4.93;;;2.60;67.60;;;;;;5036277;28;20033;-83
2022/03/09 02:51:38;;;;;;;9.48;4.72;;;2.60;67.50;;;;;;5038093;28;20028;-83
2022/03/09 02:54:04;;;;;;;11.00;5.78;;;2.60;67.80;;;;;;5013799;28;20470;-82
2022/03/09 02:56:30;;;;;;;10.23;5.35;;;2.60;68.10;;;;;;5029306;28;20033;-84
2022/03/09 02:58:55;;;;;;;8.93;4.63;;;2.50;68.30;;;;;;5014384;28;20063;-83
2022/03/09 03:01:21;;;;;;;12.10;5.57;;;2.50;68.60;;;;;;5016573;28;20045;-84
2022/03/09 03:03:46;;;;;;;13.70;6.72;;;2.40;69.00;;;;;;5014223;28;20753;-83
2022/03/09 03:06:13;;;;;;;8.80;4.32;;;2.40;68.70;;;;;;5032266;28;20048;-83
2022/03/09 03:08:39;;;;;;;10.82;5.22;;;2.40;68.90;;;;;;5032512;28;20044;-83
2022/03/09 03:11:07;;;;;;;8.82;4.40;;;2.30;69.00;;;;;;5016194;28;20037;-84
2022/03/09 03:13:32;;;;;;;10.98;5.07;;;2.30;69.60;;;;;;5032618;28;20528;-83
2022/03/09 03:15:58;;;;;;;9.50;5.05;;;2.30;69.30;;;;;;5030590;28;20036;-83
2022/03/09 03:18:23;;;;;;;9.80;4.63;;;2.30;69.30;;;;;;5015425;28;20033;-83
2022/03/09 03:20:54;;;;;;;9.30;4.55;;;2.30;69.70;;;;;;5011230;28;20033;-83
2022/03/09 03:23:21;;;;;;;8.45;4.75;;;2.20;69.60;;;;;;5016105;28;20036;-83
2022/03/09 03:25:50;;;;;;;10.60;4.60;;;2.20;70.00;;;;;;5010231;28;20045;-83
2022/03/09 03:28:17;;;;;;;12.02;5.15;;;2.10;70.50;;;;;;5018159;28;20451;-83
2022/03/09 03:30:42;;;;;;;9.77;5.10;;;2.10;70.60;;;;;;5017332;28;20041;-83
2022/03/09 03:33:08;;;;;;;9.40;4.43;;;2.10;71.20;;;;;;5026761;28;20017;-83
2022/03/09 03:35:34;;;;;;;11.05;4.70;;;2.00;71.80;;;;;;5031703;28;20524;-83
2022/03/09 03:37:59;;;;;;;9.77;4.97;;;2.00;72.00;;;;;;5031401;28;20060;-83
2022/03/09 03:40:25;;;;;;;10.70;5.28;;;1.90;72.40;;;;;;5034018;28;20044;-83
2022/03/09 03:42:51;;;;;;;11.20;5.30;;;1.90;72.50;;;;;;5030004;28;20120;-83
2022/03/09 03:45:16;;;;;;;9.95;5.30;;;1.80;73.00;;;;;;5031331;28;20037;-83
2022/03/09 03:47:42;;;;;;;11.02;5.40;;;1.80;74.40;;;;;;5026772;28;20118;-83
2022/03/09 03:50:08;;;;;;;10.00;4.95;;;1.80;74.00;;;;;;5047178;28;20464;-83
2022/03/09 03:52:33;;;;;;;9.93;4.82;;;1.70;74.10;;;;;;5030856;28;20025;-83
2022/03/09 03:54:59;;;;;;;11.15;4.63;;;1.70;74.20;;;;;;5031998;28;20091;-83
2022/03/09 03:57:25;;;;;;;12.55;5.32;;;1.70;74.50;;;;;;5037575;28;20067;-83
2022/03/09 03:59:50;;;;;;;11.07;5.10;;;1.60;74.60;;;;;;5014179;28;20196;-83
2022/03/09 04:02:16;;;;;;;10.85;6.10;;;1.60;75.00;;;;;;5024665;28;20478;-83
2022/03/09 04:04:42;;;;;;;9.98;5.15;;;1.60;75.30;;;;;;5014564;28;20034;-83
2022/03/09 04:07:07;;;;;;;9.32;5.10;;;1.60;75.00;;;;;;5028850;28;20049;-83
2022/03/09 04:09:33;;;;;;;8.70;4.50;;;1.60;75.00;;;;;;5013613;28;20120;-83
2022/03/09 04:11:59;;;;;;;8.82;4.78;;;1.60;74.90;;;;;;5025832;28;20034;-83
2022/03/09 04:14:24;;;;;;;11.38;5.18;;;1.60;75.20;;;;;;5010697;28;20466;-83
2022/03/09 04:16:50;;;;;;;10.32;4.97;;;1.50;75.50;;;;;;5010490;28;20037;-83
2022/03/09 04:19:16;;;;;;;11.68;5.07;;;1.50;75.30;;;;;;5025680;28;20124;-83
2022/03/09 04:21:42;;;;;;;10.02;3.92;;;1.50;75.50;;;;;;5024967;28;20041;-83
2022/03/09 04:24:08;;;;;;;10.80;4.97;;;1.50;76.10;;;;;;5025099;28;20516;-83
2022/03/09 04:26:34;;;;;;;12.07;5.95;;;1.50;75.90;;;;;;5026047;28;20037;-83
2022/03/09 04:28:59;;;;;;;10.02;4.90;;;1.40;75.70;;;;;;5026823;28;20055;-83
2022/03/09 04:31:25;;;;;;;11.00;4.78;;;1.40;76.10;;;;;;5020094;28;20091;-83
2022/03/09 04:33:51;;;;;;;9.05;4.70;;;1.40;76.30;;;;;;5006453;28;20030;-83
2022/03/09 04:36:17;;;;;;;10.23;5.30;;;1.40;76.10;;;;;;5020698;28;20044;-83
2022/03/09 04:38:42;;;;;;;10.65;4.63;;;1.40;76.50;;;;;;5025631;28;20045;-83
2022/03/09 04:41:08;;;;;;;11.13;4.53;;;1.40;76.50;;;;;;5026309;28;20048;-83
2022/03/09 04:43:33;;;;;;;10.48;4.90;;;1.40;76.60;;;;;;5026407;28;20038;-83
2022/03/09 04:45:59;;;;;;;8.48;5.05;;;1.30;76.40;;;;;;5026980;28;20037;-83
2022/03/09 04:48:25;;;;;;;11.32;5.38;;;1.30;77.00;;;;;;5007781;28;20045;-83
2022/03/09 04:50:50;;;;;;;9.20;4.90;;;1.30;78.10;;;;;;5029371;28;20033;-83
2022/03/09 04:53:16;;;;;;;10.52;5.30;;;1.30;77.40;;;;;;5006644;28;20387;-83
2022/03/09 04:55:42;;;;;;;11.18;5.30;;;1.30;77.50;;;;;;5011453;28;20040;-83
2022/03/09 04:58:07;;;;;;;10.57;4.93;;;1.30;76.90;;;;;;5013175;28;20132;-83
2022/03/09 05:00:33;;;;;;;8.35;4.53;;;1.30;76.80;;;;;;5018852;28;20075;-83
2022/03/09 05:02:59;;;;;;;12.95;5.20;;;1.30;76.90;;;;;;5008211;28;20056;-83
2022/03/09 05:05:24;;;;;;;11.07;4.93;;;1.30;76.30;;;;;;5003679;28;20548;-83
2022/03/09 05:07:50;;;;;;;9.88;4.70;;;1.30;76.50;;;;;;5006739;28;20061;-83
2022/03/09 05:10:16;;;;;;;12.00;4.20;;;1.30;76.30;;;;;;5002550;28;20136;-83
2022/03/09 05:12:41;;;;;;;10.23;4.40;;;1.30;76.70;;;;;;5020589;28;20040;-83
2022/03/09 05:15:07;;;;;;;13.35;5.00;;;1.40;76.10;;;;;;5022349;28;20064;-83
2022/03/09 05:17:38;;;;;;;10.63;4.70;;;1.30;75.90;;;;;;5017769;28;20037;-83
2022/03/09 05:20:04;;;;;;;12.32;5.70;;;1.40;75.50;;;;;;5025226;28;20041;-82
2022/03/09 05:22:30;;;;;;;7.47;4.00;;;1.40;75.70;;;;;;5003848;28;20439;-82
2022/03/09 05:24:55;;;;;;;10.10;4.55;;;1.40;75.90;;;;;;5019479;28;20034;-83
2022/03/09 05:27:25;;;;;;;8.90;4.32;;;1.40;75.30;;;;;;5024798;28;20034;-83
2022/03/09 05:29:50;;;;;;;9.30;3.92;;;1.30;75.50;;;;;;5023632;28;20155;-83
2022/03/09 05:32:16;;;;;;;11.18;5.32;;;1.40;75.50;;;;;;5025075;28;20033;-83
2022/03/09 05:34:41;;;;;;;8.82;4.43;;;1.30;75.30;;;;;;5006124;28;20779;-83
2022/03/09 05:37:07;;;;;;;9.73;4.70;;;1.30;75.70;;;;;;5004043;28;20041;-83
2022/03/09 05:39:33;;;;;;;10.10;5.03;;;1.30;75.60;;;;;;5021955;28;20072;-83
2022/03/09 05:41:58;;;;;;;10.27;4.60;;;1.30;76.30;;;;;;5008993;28;20037;-83
2022/03/09 05:44:24;;;;;;;13.20;5.15;;;1.30;75.80;;;;;;5019339;28;20038;-83
2022/03/09 05:46:50;;;;;;;9.10;4.85;;;1.20;76.10;;;;;;5012764;28;20034;-83
2022/03/09 05:49:15;;;;;;;9.35;4.57;;;1.20;76.10;;;;;;5019860;28;20033;-83
2022/03/09 05:51:41;;;;;;;10.13;4.68;;;1.20;76.80;;;;;;5022522;28;20117;-83
2022/03/09 05:54:06;;;;;;;10.90;5.18;;;1.10;77.60;;;;;;5006580;28;20033;-83
2022/03/09 05:56:32;;;;;;;8.90;4.13;;;1.10;78.40;;;;;;5006680;28;20062;-83
2022/03/09 05:58:58;;;;;;;14.18;5.15;;;1.10;78.60;;;;;;5020398;28;20548;-83
2022/03/09 06:01:23;;;;;;;9.57;4.90;;;1.00;78.30;;;;;;5008042;28;20038;-83
2022/03/09 06:03:49;;;;;;;9.32;4.53;;;1.00;78.50;;;;;;5030252;28;20094;-83
2022/03/09 06:06:15;;;;;;;9.20;4.95;;;1.00;78.70;;;;;;5023805;28;20104;-83
2022/03/09 06:08:41;;;;;;;10.10;4.70;;;1.00;78.60;;;;;;5026711;28;20041;-83
2022/03/09 06:11:06;;;;;;;10.18;5.07;;;1.00;79.00;;;;;;5028721;28;20041;-83
2022/03/09 06:13:32;;;;;;;9.43;4.95;;;1.00;78.50;;;;;;5032409;28;20102;-83
2022/03/09 06:15:57;;;;;;;9.95;5.07;;;1.00;78.80;;;;;;5023962;28;20108;-83
2022/03/09 06:18:23;;;;;;;9.48;4.60;;;1.00;78.40;;;;;;5030898;28;20049;-83
2022/03/09 06:20:50;;;;;;;9.48;4.70;;;1.00;78.50;;;;;;5005286;28;20136;-83
2022/03/09 06:23:16;;;;;;;8.98;4.47;;;1.00;79.00;;;;;;5009134;28;20083;-83
2022/03/09 06:25:42;;;;;;;11.48;5.07;;;1.00;78.90;;;;;;5034287;28;20091;-83
2022/03/09 06:28:07;;;;;;;10.00;4.57;;;1.00;78.80;;;;;;5012843;28;20040;-83
2022/03/09 06:30:33;;;;;;;9.48;3.80;;;1.00;78.90;;;;;;5031020;28;20394;-83
2022/03/09 06:32:59;;;;;;;10.80;4.50;;;1.00;79.30;;;;;;5013837;28;20044;-83
2022/03/09 06:35:25;;;;;;;8.25;4.20;;;1.00;79.00;;;;;;5030972;28;20144;-83
2022/03/09 06:37:50;;;;;;;11.60;4.85;;;1.00;78.60;;;;;;5016728;28;20045;-83
2022/03/09 06:40:16;;;;;;;11.57;5.22;;;1.00;79.00;;;;;;5027287;28;20124;-83
2022/03/09 06:42:42;;;;;;;13.45;5.00;;;1.00;79.30;;;;;;5023464;28;20048;-83
2022/03/09 06:45:08;;;;;;;9.20;4.28;;;1.00;79.40;;;;;;5036386;28;20128;-83
2022/03/09 06:47:38;;;;;;;10.48;4.43;;;1.10;79.20;;;;;;5037935;28;20090;-83
2022/03/09 06:50:05;;;;;;;10.60;4.20;;;1.10;80.60;;;;;;5039113;28;20040;-83
2022/03/09 06:52:31;;;;;;;7.78;4.53;;;1.00;79.90;;;;;;5020853;28;20055;-83
2022/03/09 06:55:02;;;;;;;9.23;4.32;;;1.10;79.30;;;;;;5031165;28;20454;-83
2022/03/09 06:57:29;;;;;;;9.13;4.60;;;1.10;79.30;;;;;;5018258;28;20077;-83
2022/03/09 06:59:56;;;;;;;11.20;4.85;;;1.10;79.70;;;;;;5021076;28;20041;-83
2022/03/09 07:02:22;;;;;;;10.45;4.82;;;1.20;79.80;;;;;;5018877;28;20095;-83
2022/03/09 07:04:48;;;;;;;10.43;5.15;;;1.20;79.90;;;;;;5030807;28;20060;-83
2022/03/09 07:07:14;;;;;;;10.80;5.00;;;1.20;79.20;;;;;;5029448;28;20042;-83
2022/03/09 07:09:39;;;;;;;9.85;4.55;;;1.30;79.50;;;;;;5028292;28;20497;-83
2022/03/09 07:12:05;;;;;;;12.20;4.82;;;1.30;79.10;;;;;;5017358;28;20064;-83
2022/03/09 07:14:31;;;;;;;10.15;5.15;;;1.40;78.90;;;;;;5016421;28;20478;-83
2022/03/09 07:16:57;;;;;;;9.20;4.22;;;1.40;78.50;;;;;;5031034;28;20034;-85
2022/03/09 07:19:22;;;;;;;7.97;4.05;;;1.50;78.30;;;;;;5034379;28;20046;-83
2022/03/09 07:21:49;;;;;;;10.18;4.40;;;1.50;77.70;;;;;;5035164;28;20148;-84
2022/03/09 07:24:14;;;;;;;9.45;5.25;;;1.60;77.40;;;;;;5009598;28;20053;-84
2022/03/09 07:26:42;;;;;;;9.13;4.75;;;1.70;76.80;;;;;;5031992;28;20034;-84
2022/03/09 07:29:11;;;;;;;12.90;4.25;;;1.80;76.60;;;;;;5031804;28;20068;-83
2022/03/09 07:31:37;;;;;;;8.80;4.05;;;1.80;76.40;;;;;;5013760;28;20038;-84
2022/03/09 07:34:03;;;;;;;9.13;4.38;;;1.90;76.00;;;;;;5015038;28;20168;-84
2022/03/09 07:36:28;;;;;;;9.27;4.47;;;2.00;75.60;;;;;;5011612;28;20113;-84
2022/03/09 07:38:54;;;;;;;9.88;4.85;;;2.10;75.00;;;;;;5031070;28;20044;-84
2022/03/09 07:41:20;;;;;;;8.07;4.30;;;2.10;74.60;;;;;;5031020;28;20037;-84
2022/03/09 07:43:45;;;;;;;11.05;4.78;;;2.30;74.10;;;;;;5028883;28;20034;-84
2022/03/09 07:46:11;;;;;;;8.65;4.68;;;2.30;73.60;;;;;;5030208;28;20185;-84
2022/03/09 07:48:37;;;;;;;9.73;5.20;;;2.40;73.20;;;;;;5014147;28;20519;-84
2022/03/09 07:51:02;;;;;;;12.30;4.60;;;2.50;73.00;;;;;;5034399;28;20619;-84
2022/03/09 07:53:28;;;;;;;11.35;4.35;;;2.50;72.70;;;;;;5030454;28;20186;-84
2022/03/09 07:55:54;;;;;;;11.27;4.80;;;2.60;72.30;;;;;;5012578;28;20492;-84
2022/03/09 07:58:19;;;;;;;10.73;4.47;;;2.70;72.20;;;;;;5030903;28;20069;-84
2022/03/09 08:00:45;;;;;;;11.52;4.80;;;2.80;72.20;;;;;;5036959;28;20042;-83
2022/03/09 08:03:10;;;;;;;8.05;4.50;;;2.90;71.80;;;;;;5031660;28;20100;-83
2022/03/09 08:05:36;;;;;;;13.52;4.75;;;2.90;71.60;;;;;;5029705;28;20053;-84
2022/03/09 08:08:02;;;;;;;8.52;4.65;;;3.00;71.20;;;;;;5016168;28;20402;-84
2022/03/09 08:10:27;;;;;;;9.50;4.30;;;3.10;71.00;;;;;;5032879;28;20425;-84
2022/03/09 08:12:53;;;;;;;11.10;4.25;;;3.20;70.40;;;;;;5011547;28;20083;-83
2022/03/09 08:15:18;;;;;;;9.18;4.20;;;3.30;69.80;;;;;;5033782;28;20041;-84
2022/03/09 08:17:44;;;;;;;8.27;3.90;;;3.40;69.30;;;;;;5014107;28;20053;-84
2022/03/09 08:20:10;;;;;;;10.93;5.07;;;3.40;68.50;;;;;;5031593;28;20041;-84
2022/03/09 08:22:36;;;;;;;11.00;3.97;;;3.50;68.00;;;;;;5032865;28;20163;-83
2022/03/09 08:25:02;;;;;;;10.45;4.75;;;3.60;68.00;;;;;;5029579;28;20065;-83
2022/03/09 08:27:27;;;;;;;9.80;4.93;;;3.70;68.00;;;;;;5006364;28;20037;-83
2022/03/09 08:29:53;;;;;;;9.98;4.22;;;3.80;67.50;;;;;;5016433;28;20124;-84
2022/03/09 08:32:19;;;;;;;8.70;4.35;;;3.80;67.10;;;;;;5017701;28;20089;-84
2022/03/09 08:34:46;;;;;;;11.55;4.38;;;3.90;66.30;;;;;;5037609;28;20045;-83
2022/03/09 08:37:12;;;;;;;12.48;4.65;;;4.10;65.60;;;;;;5014775;28;20041;-83
2022/03/09 08:39:38;;;;;;;8.80;4.38;;;4.10;65.40;;;;;;5034145;28;20116;-84
2022/03/09 08:42:04;;;;;;;8.98;4.20;;;4.20;65.10;;;;;;5027219;28;20100;-83
2022/03/09 08:44:29;;;;;;;12.52;4.78;;;4.30;64.80;;;;;;5028078;28;20041;-83
2022/03/09 08:46:55;;;;;;;10.60;5.03;;;4.30;64.80;;;;;;5010787;28;20045;-83
2022/03/09 08:49:21;;;;;;;9.98;5.10;;;4.40;65.30;;;;;;5027137;28;20069;-84
2022/03/09 08:51:46;;;;;;;9.27;5.22;;;4.40;65.40;;;;;;5026127;28;20064;-84
2022/03/09 08:54:12;;;;;;;8.93;4.35;;;4.60;64.80;;;;;;5032511;28;20091;-84
2022/03/09 08:56:38;;;;;;;10.75;5.03;;;4.60;65.00;;;;;;5032881;28;20037;-84
2022/03/09 08:59:03;;;;;;;9.43;4.65;;;4.80;64.60;;;;;;5031172;28;20099;-84
2022/03/09 09:01:29;;;;;;;9.93;4.85;;;4.90;64.20;;;;;;5032457;28;20029;-84
2022/03/09 09:03:55;;;;;;;10.32;4.53;;;4.90;64.10;;;;;;5037455;28;20044;-84
2022/03/09 09:06:21;;;;;;;9.68;4.70;;;5.10;63.90;;;;;;5033719;28;20033;-84
2022/03/09 09:08:46;;;;;;;8.95;4.60;;;5.10;63.60;;;;;;5035427;28;20112;-84
2022/03/09 09:11:12;;;;;;;15.20;4.63;;;5.30;62.70;;;;;;5019527;28;20047;-84
2022/03/09 09:13:38;;;;;;;8.98;4.60;;;5.40;62.50;;;;;;5032814;28;20045;-84
2022/03/09 09:16:04;;;;;;;9.35;5.03;;;5.50;62.00;;;;;;5039159;28;20039;-84
2022/03/09 09:18:30;;;;;;;8.50;4.35;;;5.60;61.30;;;;;;5012984;28;20484;-84
2022/03/09 09:20:56;;;;;;;11.25;4.75;;;5.70;61.50;;;;;;5014380;28;20036;-84
2022/03/09 09:23:22;;;;;;;19.25;5.00;;;5.80;61.40;;;;;;5033289;28;20081;-83
2022/03/09 09:25:48;;;;;;;7.20;4.28;;;5.90;60.90;;;;;;5014640;28;20129;-84
2022/03/09 09:28:15;;;;;;;8.68;3.97;;;6.00;60.20;;;;;;5034308;28;20085;-84
2022/03/09 09:30:41;;;;;;;13.95;4.55;;;6.10;59.90;;;;;;5032673;28;20099;-84
2022/03/09 09:33:07;;;;;;;11.73;4.50;;;6.30;59.40;;;;;;5035154;28;20374;-83
2022/03/09 09:35:33;;;;;;;9.95;4.55;;;6.30;58.90;;;;;;5030812;28;20096;-84
2022/03/09 09:38:06;;;;;;;10.70;4.50;;;6.40;58.60;;;;;;5013213;28;20398;-84
2022/03/09 09:40:34;;;;;;;9.35;4.72;;;6.50;57.50;;;;;;5036195;28;20430;-84
2022/03/09 09:43:07;;;;;;;9.00;4.50;;;6.60;57.20;;;;;;5024221;28;20119;-84
2022/03/09 09:45:35;;;;;;;8.95;4.53;;;6.70;57.70;;;;;;5026699;28;20504;-84
2022/03/09 09:48:02;;;;;;;7.95;4.47;;;6.80;56.70;;;;;;5030920;28;20509;-85
2022/03/09 09:50:28;;;;;;;9.15;4.63;;;6.90;55.60;;;;;;5033179;28;20044;-84
2022/03/09 09:52:54;;;;;;;8.75;4.43;;;6.90;55.80;;;;;;5021481;28;20083;-84
2022/03/09 09:55:20;;;;;;;10.18;5.07;;;7.00;56.10;;;;;;5037932;28;20396;-84
2022/03/09 09:57:49;;;;;;;10.90;4.78;;;7.10;56.10;;;;;;5022110;28;20127;-84
2022/03/09 10:00:16;;;;;;;8.02;4.18;;;7.20;55.80;;;;;;5037835;28;20045;-83
2022/03/09 10:02:42;;;;;;;9.10;4.65;;;7.30;55.90;;;;;;5001271;28;20064;-84
2022/03/09 10:05:12;;;;;;;8.15;4.35;;;7.40;55.40;;;;;;5006592;28;20604;-83
2022/03/09 10:08:06;;;;;;;7.13;4.22;;;7.40;55.50;;;;;;5039352;28;20090;-83
2022/03/09 10:10:34;;;;;;;9.10;4.82;;;7.50;56.00;;;;;;5035226;28;20167;-84
2022/03/09 10:13:17;;;;;;;12.18;4.88;;;7.60;55.80;;;;;;5017494;28;20049;-83
2022/03/09 10:15:46;;;;;;;8.02;4.43;;;7.80;55.50;;;;;;5028560;28;20048;-84
2022/03/09 10:18:17;;;;;;;9.40;4.63;;;7.90;55.10;;;;;;5033165;28;20048;-84
2022/03/09 10:20:45;;;;;;;8.75;4.50;;;8.10;54.90;;;;;;5031585;28;20045;-84
2022/03/09 10:23:11;;;;;;;9.27;5.07;;;8.10;54.60;;;;;;5032341;28;20626;-83
2022/03/09 10:25:38;;;;;;;9.30;4.20;;;8.20;54.20;;;;;;5016065;28;20223;-83
2022/03/09 10:28:09;;;;;;;12.40;4.95;;;8.30;54.20;;;;;;5011716;28;20029;-83
2022/03/09 10:30:39;;;;;;;10.57;4.40;;;8.40;53.50;;;;;;5032776;28;20040;-84
2022/03/09 10:33:14;;;;;;;8.63;4.40;;;8.50;52.80;;;;;;5034029;28;20442;-84
2022/03/09 10:35:46;;;;;;;9.02;4.38;;;8.60;52.50;;;;;;5034638;28;20057;-84
2022/03/09 10:38:15;;;;;;;8.52;4.90;;;8.80;52.60;;;;;;5028916;28;20034;-84
2022/03/09 10:40:47;;;;;;;9.32;3.78;;;8.90;52.00;;;;;;5031761;28;20041;-83
2022/03/09 10:43:16;;;;;;;10.52;4.78;;;8.90;51.20;;;;;;5031290;28;20034;-83
2022/03/09 10:46:00;;;;;;;9.13;4.32;;;9.00;51.80;;;;;;5028554;28;20409;-83
2022/03/09 10:48:27;;;;;;;9.27;4.40;;;9.10;51.40;;;;;;5031984;28;20037;-79
2022/03/09 10:50:55;;;;;;;9.30;4.78;;;9.10;51.90;;;;;;5034022;28;20156;-80
2022/03/09 10:53:21;;;;;;;10.95;5.30;;;9.30;51.60;;;;;;5030945;28;20132;-80
2022/03/09 10:55:47;;;;;;;12.95;4.95;;;9.40;51.70;;;;;;5034664;28;20183;-81
2022/03/09 10:58:21;;;;;;;9.20;4.97;;;9.50;50.90;;;;;;5019163;28;20037;-81
2022/03/09 11:00:52;;;;;;;7.97;4.80;;;9.60;50.30;;;;;;5035320;28;20040;-83
2022/03/09 11:03:20;;;;;;;10.13;5.60;;;9.60;50.40;;;;;;5039010;28;20057;-83
2022/03/09 11:05:57;;;;;;;9.15;4.22;;;9.70;49.00;;;;;;5030029;28;20085;-83
2022/03/09 11:08:31;;;;;;;8.90;5.05;;;9.80;48.70;;;;;;5052152;28;20399;-83
2022/03/09 11:11:00;;;;;;;11.10;5.05;;;9.90;48.50;;;;;;5032489;28;20048;-84
2022/03/09 11:13:28;;;;;;;10.15;5.13;;;10.00;49.00;;;;;;5014903;28;20374;-83
2022/03/09 11:15:54;;;;;;;11.55;5.38;;;10.10;47.50;;;;;;5010680;28;20490;-83
2022/03/09 11:18:28;;;;;;;8.75;5.30;;;10.20;48.00;;;;;;5038735;28;20049;-83
2022/03/09 11:21:00;;;;;;;12.18;5.40;;;10.30;48.10;;;;;;5032044;28;20409;-83
2022/03/09 11:23:29;;;;;;;8.60;4.38;;;10.40;48.20;;;;;;5034100;28;20072;-83
2022/03/09 11:26:23;;;;;;;8.98;4.78;;;10.60;48.20;;;;;;5016208;28;20424;-83
2022/03/09 11:28:58;;;;;;;9.70;5.30;;;10.70;47.70;;;;;;5027380;28;20548;-81
2022/03/09 11:31:40;;;;;;;9.05;5.28;;;10.70;46.80;;;;;;5029989;28;20029;-81
2022/03/09 11:34:06;;;;;;;9.00;4.93;;;10.80;47.50;;;;;;5034112;28;20036;-81
2022/03/09 11:36:33;;;;;;;11.85;5.18;;;10.90;47.60;;;;;;5015305;28;20391;-83
2022/03/09 11:39:04;;;;;;;10.82;5.80;;;11.00;47.60;;;;;;5032739;28;20048;-83
2022/03/09 11:41:38;;;;;;;12.48;5.40;;;11.10;47.10;;;;;;5033717;28;20085;-84
2022/03/09 11:44:22;;;;;;;8.38;4.93;;;11.20;46.70;;;;;;5032155;28;20039;-84
2022/03/09 11:46:59;;;;;;;8.80;5.53;;;11.30;46.60;;;;;;5025634;28;20042;-83
2022/03/09 11:49:45;;;;;;;10.77;5.53;;;11.30;45.80;;;;;;5031392;28;20093;-84
2022/03/09 11:52:19;;;;;;;9.50;5.68;;;11.40;45.70;;;;;;5029413;28;20044;-85
2022/03/09 11:54:49;;;;;;;9.70;5.32;;;11.50;45.70;;;;;;5032577;28;20092;-84
2022/03/09 11:57:17;;;;;;;10.00;5.55;;;11.60;45.60;;;;;;5032076;28;20045;-84
2022/03/09 12:00:10;;;;;;;10.35;5.82;;;11.70;45.50;;;;;;5032466;28;20049;-85
2022/03/09 12:02:43;;;;;;;9.45;5.70;;;11.80;45.50;;;;;;5028738;28;20582;-85
2022/03/09 12:05:24;;;;;;;11.80;5.90;;;11.90;44.10;;;;;;5029954;28;20099;-85
2022/03/09 12:07:54;;;;;;;10.00;5.45;;;11.90;43.00;;;;;;5032267;28;20037;-85
2022/03/09 12:10:24;;;;;;;9.35;5.45;;;11.90;43.80;;;;;;5016164;28;20089;-85
2022/03/09 12:13:08;;;;;;;9.13;5.57;;;12.10;44.40;;;;;;5018849;28;20041;-85
2022/03/09 12:15:57;;;;;;;10.88;5.68;;;12.20;42.90;;;;;;5029962;28;20131;-85
2022/03/09 12:18:40;;;;;;;9.90;5.93;;;12.30;41.60;;;;;;5033559;28;20072;-85
2022/03/09 12:21:07;;;;;;;9.82;6.07;;;12.60;42.60;;;;;;5036118;28;20387;-84
2022/03/09 12:23:34;;;;;;;9.88;5.47;;;13.00;42.00;;;;;;5016622;28;20115;-84
2022/03/09 12:26:01;;;;;;;10.18;6.25;;;13.40;40.00;;;;;;5028944;28;20045;-84
2022/03/09 12:28:34;;;;;;;10.55;6.00;;;13.90;39.30;;;;;;5013286;28;20069;-84
2022/03/09 12:31:02;;;;;;;9.15;5.30;;;14.30;38.70;;;;;;5034666;28;20051;-84
2022/03/09 12:33:31;;;;;;;9.05;5.80;;;14.80;37.90;;;;;;5032759;28;20041;-83
2022/03/09 12:36:24;;;;;;;10.18;5.90;;;15.00;37.00;;;;;;5030387;28;20041;-84
2022/03/09 12:38:55;;;;;;;10.52;6.40;;;15.40;35.60;;;;;;5013342;28;20462;-84
2022/03/09 12:41:33;;;;;;;12.07;6.03;;;15.60;36.00;;;;;;5014054;28;20100;-84
2022/03/09 12:44:04;;;;;;;9.48;5.88;;;16.00;35.50;;;;;;5028341;28;20116;-84
2022/03/09 12:46:31;;;;;;;11.23;5.82;;;16.10;34.50;;;;;;5032864;28;20044;-84
2022/03/09 12:49:28;;;;;;;12.02;6.78;;;16.20;34.30;;;;;;5031906;28;20405;-85
2022/03/09 12:52:15;;;;;;;9.27;5.93;;;16.40;34.00;;;;;;5016284;28;20072;-84